createdAt,value
2022-12-08T00:01:34.075Z,96229.50
2022-12-08T00:04:03.672Z,96223.59
2022-12-08T00:06:54.479Z,96220.67
2022-12-08T00:09:39.121Z,96218.64
2022-12-08T00:12:11.976Z,96220.73
2022-12-08T00:14:42.628Z,96221.86
2022-12-08T00:17:14.098Z,96222.25
2022-12-08T00:19:43.304Z,96222.68
2022-12-08T00:22:15.319Z,96220.82
2022-12-08T00:24:45.641Z,96224.40
2022-12-08T00:27:18.640Z,96225.08
2022-12-08T00:29:46.550Z,96222.45
2022-12-08T00:32:15.095Z,96228.11
2022-12-08T00:34:42.961Z,96229.66
2022-12-08T00:37:10.750Z,96233.98
2022-12-08T00:39:38.521Z,96236.84
2022-12-08T00:42:13.767Z,96243.29
2022-12-08T00:44:43.875Z,96244.36
2022-12-08T00:47:12.947Z,96251.94
2022-12-08T00:49:41.479Z,96257.11
2022-12-08T00:52:09.807Z,96255.81
2022-12-08T00:54:37.686Z,96259.48
2022-12-08T00:57:05.684Z,96261.54
2022-12-08T00:59:33.549Z,96262.78
2022-12-08T01:02:01.668Z,96264.30
2022-12-08T01:04:29.645Z,96263.67
2022-12-08T01:06:57.568Z,96260.83
2022-12-08T01:09:25.450Z,96257.73
2022-12-08T01:11:53.332Z,96259.65
2022-12-08T01:14:22.464Z,96258.88
2022-12-08T01:16:50.587Z,96261.86
2022-12-08T01:19:18.895Z,96260.52
2022-12-08T01:21:47.229Z,96263.63
2022-12-08T01:24:19.128Z,96264.10
2022-12-08T01:26:49.368Z,96264.98
2022-12-08T01:29:17.291Z,96265.36
2022-12-08T01:31:45.232Z,96255.80
2022-12-08T01:34:13.302Z,96249.92
2022-12-08T01:36:42.130Z,96247.36
2022-12-08T01:39:15.735Z,96247.32
2022-12-08T01:41:45.269Z,96246.14
2022-12-08T01:44:52.895Z,96252.49
2022-12-08T01:47:22.889Z,96258.40
2022-12-08T01:49:51.083Z,96256.05
2022-12-08T01:52:29.568Z,96257.83
2022-12-08T01:55:08.723Z,96261.28
2022-12-08T01:57:43.024Z,96264.04
2022-12-08T02:00:17.140Z,96268.40
2022-12-08T02:02:56.621Z,96268.11
2022-12-08T02:05:29.554Z,96274.46
2022-12-08T02:07:58.674Z,96278.52
2022-12-08T02:10:30.491Z,96278.47
2022-12-08T02:13:00.450Z,96281.80
2022-12-08T02:15:42.915Z,96277.96
2022-12-08T02:18:57.667Z,96280.55
2022-12-08T02:21:59.345Z,96281.86
2022-12-08T02:24:38.274Z,96281.86
2022-12-08T02:27:38.431Z,96286.17
2022-12-08T02:30:23.601Z,96278.80
2022-12-08T02:33:23.775Z,96282.22
2022-12-08T02:36:07.610Z,96278.92
2022-12-08T02:38:48.738Z,96277.95
2022-12-08T02:41:47.047Z,96276.21
2022-12-08T02:44:24.728Z,96276.77
2022-12-08T02:46:56.364Z,96276.63
2022-12-08T02:49:35.293Z,96281.73
2022-12-08T02:52:27.726Z,96280.77
2022-12-08T02:55:02.009Z,96276.90
2022-12-08T02:57:51.939Z,96275.10
2022-12-08T03:00:22.467Z,96280.30
2022-12-08T03:03:07.952Z,96274.73
2022-12-08T03:05:55.798Z,96273.05
2022-12-08T03:08:45.975Z,96273.57
2022-12-08T03:11:22.139Z,96276.91
2022-12-08T03:13:54.811Z,96278.31
2022-12-08T03:16:27.513Z,96277.64
2022-12-08T03:19:09.291Z,96279.66
2022-12-08T03:21:41.254Z,96278.21
2022-12-08T03:24:11.254Z,96276.70
2022-12-08T03:26:48.659Z,96273.19
2022-12-08T03:29:16.940Z,96274.60
2022-12-08T03:31:54.002Z,96272.44
2022-12-08T03:34:26.025Z,96273.45
2022-12-08T03:36:54.059Z,96273.00
2022-12-08T03:39:22.151Z,96272.41
2022-12-08T03:41:50.363Z,96277.88
2022-12-08T03:44:18.284Z,96274.83
2022-12-08T03:46:46.115Z,96277.41
2022-12-08T03:49:14.084Z,96277.66
2022-12-08T03:51:41.852Z,96278.37
2022-12-08T03:54:09.645Z,96276.63
2022-12-08T03:56:39.402Z,96280.76
2022-12-08T03:59:08.133Z,96275.52
2022-12-08T04:01:36.346Z,96272.77
2022-12-08T04:04:04.646Z,96274.55
2022-12-08T04:06:32.946Z,96273.43
2022-12-08T04:09:00.859Z,96276.26
2022-12-08T04:11:28.837Z,96276.73
2022-12-08T04:13:58.185Z,96275.35
2022-12-08T04:16:27.943Z,96276.42
2022-12-08T04:18:56.255Z,96275.95
2022-12-08T04:21:27.824Z,96274.61
2022-12-08T04:24:00.864Z,96273.35
2022-12-08T04:26:29.351Z,96271.26
2022-12-08T04:28:57.625Z,96269.42
2022-12-08T04:31:25.530Z,96268.27
2022-12-08T04:33:53.414Z,96270.36
2022-12-08T04:36:21.214Z,96266.27
2022-12-08T04:38:49.025Z,96262.98
2022-12-08T04:41:16.866Z,96264.14
2022-12-08T04:43:45.011Z,96260.79
2022-12-08T04:46:12.892Z,96261.14
2022-12-08T04:48:41.828Z,96262.71
2022-12-08T04:51:17.093Z,96261.16
2022-12-08T04:53:46.845Z,96260.52
2022-12-08T04:56:16.943Z,96259.31
2022-12-08T04:58:45.698Z,96262.21
2022-12-08T05:01:14.280Z,96260.44
2022-12-08T05:03:42.365Z,96265.81
2022-12-08T05:06:13.285Z,96265.89
2022-12-08T05:08:42.630Z,96270.66
2022-12-08T05:11:12.262Z,96268.74
2022-12-08T05:13:40.451Z,96269.70
2022-12-08T05:16:11.814Z,96271.40
2022-12-08T05:18:41.154Z,96281.95
2022-12-08T05:21:09.933Z,96288.98
2022-12-08T05:23:38.329Z,96288.34
2022-12-08T05:26:06.350Z,96285.62
2022-12-08T05:28:42.988Z,96291.33
2022-12-08T05:31:14.342Z,96290.66
2022-12-08T05:33:44.910Z,96290.02
2022-12-08T05:36:14.962Z,96293.48
2022-12-08T05:38:45.306Z,96294.11
2022-12-08T05:41:17.066Z,96296.77
2022-12-08T05:43:45.664Z,96295.73
2022-12-08T05:46:14.925Z,96296.24
2022-12-08T05:48:45.867Z,96295.16
2022-12-08T05:51:19.890Z,96300.58
2022-12-08T05:53:51.787Z,96296.39
2022-12-08T05:56:21.094Z,96296.94
2022-12-08T05:58:49.673Z,96298.77
2022-12-08T06:01:23.076Z,96302.53
2022-12-08T06:03:52.078Z,96306.56
2022-12-08T06:06:20.611Z,96303.64
2022-12-08T06:08:48.905Z,96305.72
2022-12-08T06:11:27.204Z,96303.40
2022-12-08T06:13:56.794Z,96306.73
2022-12-08T06:16:26.776Z,96309.50
2022-12-08T06:18:55.921Z,96311.92
2022-12-08T06:21:24.372Z,96310.86
2022-12-08T06:23:53.866Z,96309.35
2022-12-08T06:26:22.205Z,96309.45
2022-12-08T06:28:50.518Z,96313.57
2022-12-08T06:31:21.352Z,96312.27
2022-12-08T06:33:49.895Z,96317.35
2022-12-08T06:36:19.902Z,96314.98
2022-12-08T06:38:48.272Z,96312.25
2022-12-08T06:41:17.202Z,96314.51
2022-12-08T06:43:45.412Z,96318.54
2022-12-08T06:46:16.345Z,96323.66
2022-12-08T06:48:45.011Z,96320.84
2022-12-08T06:51:31.608Z,96318.58
2022-12-08T06:54:16.341Z,96323.27
2022-12-08T06:56:44.274Z,96319.46
2022-12-08T06:59:12.095Z,96312.37
2022-12-08T07:01:40.137Z,96318.77
2022-12-08T07:04:08.340Z,96317.23
2022-12-08T07:06:36.562Z,96325.97
2022-12-08T07:09:10.861Z,96334.16
2022-12-08T07:12:01.382Z,96337.02
2022-12-08T07:14:56.678Z,96340.41
2022-12-08T07:17:38.424Z,96342.57
2022-12-08T07:20:10.733Z,96332.41
2022-12-08T07:23:21.508Z,96339.09
2022-12-08T07:26:19.346Z,96340.58
2022-12-08T07:29:26.429Z,96341.30
2022-12-08T07:32:27.333Z,96338.92
2022-12-08T07:36:02.123Z,96332.83
2022-12-08T07:38:47.291Z,96332.85
2022-12-08T07:41:23.925Z,96333.34
2022-12-08T07:44:00.342Z,96337.81
2022-12-08T07:46:54.219Z,96333.64
2022-12-08T07:49:34.883Z,96339.63
2022-12-08T07:52:06.879Z,96328.02
2022-12-08T07:54:50.291Z,96332.77
2022-12-08T07:57:37.183Z,96336.84
2022-12-08T08:00:21.619Z,96339.84
2022-12-08T08:02:56.254Z,96340.89
2022-12-08T08:05:29.024Z,96343.95
2022-12-08T08:07:57.655Z,96337.89
2022-12-08T08:10:27.042Z,96338.59
2022-12-08T08:13:06.890Z,96341.06
2022-12-08T08:16:00.349Z,96341.75
2022-12-08T08:18:31.473Z,96348.23
2022-12-08T08:21:15.893Z,96348.20
2022-12-08T08:23:57.362Z,96347.78
2022-12-08T08:26:27.750Z,96348.75
2022-12-08T08:28:58.058Z,96350.65
2022-12-08T08:31:29.051Z,96346.23
2022-12-08T08:34:05.003Z,96339.04
2022-12-08T08:36:33.311Z,96339.29
2022-12-08T08:39:11.550Z,96341.91
2022-12-08T08:41:51.459Z,96338.34
2022-12-08T08:44:25.372Z,96338.67
2022-12-08T08:46:54.633Z,96338.50
2022-12-08T08:49:22.704Z,96332.48
2022-12-08T08:51:57.536Z,96332.10
2022-12-08T08:54:25.765Z,96324.42
2022-12-08T08:57:25.312Z,96324.83
2022-12-08T08:59:55.759Z,96315.62
2022-12-08T09:02:26.784Z,96310.88
2022-12-08T09:05:23.485Z,96305.04
2022-12-08T09:07:55.222Z,96297.73
2022-12-08T09:10:28.536Z,96294.85
2022-12-08T09:13:08.294Z,96295.28
2022-12-08T09:15:55.642Z,96290.37
2022-12-08T09:19:11.131Z,96284.65
2022-12-08T09:22:05.207Z,96280.02
2022-12-08T09:24:38.636Z,96283.49
2022-12-08T09:27:20.881Z,96284.17
2022-12-08T09:30:03.070Z,96287.17
2022-12-08T09:32:49.890Z,96279.64
2022-12-08T09:35:28.198Z,96282.33
2022-12-08T09:37:56.217Z,96279.94
2022-12-08T09:40:43.791Z,96272.27
2022-12-08T09:43:35.343Z,96266.11
2022-12-08T09:46:12.918Z,96266.69
2022-12-08T09:49:10.802Z,96271.18
2022-12-08T09:51:44.017Z,96261.83
2022-12-08T09:54:24.214Z,96257.64
2022-12-08T09:57:03.613Z,96257.87
2022-12-08T09:59:36.941Z,96264.55
2022-12-08T10:02:23.614Z,96254.41
2022-12-08T10:05:07.155Z,96251.91
2022-12-08T10:07:48.373Z,96251.04
2022-12-08T10:10:32.214Z,96253.80
2022-12-08T10:13:17.143Z,96250.90
2022-12-08T10:17:04.664Z,96250.65
2022-12-08T10:19:35.616Z,96247.20
2022-12-08T10:22:15.158Z,96243.80
2022-12-08T10:24:55.606Z,96248.11
2022-12-08T10:27:28.298Z,96245.63
2022-12-08T10:30:01.144Z,96237.70
2022-12-08T10:32:36.802Z,96224.49
2022-12-08T10:35:15.235Z,96220.29
2022-12-08T10:37:57.851Z,96210.89
2022-12-08T10:40:29.590Z,96203.52
2022-12-08T10:43:01.150Z,96206.95
2022-12-08T10:45:43.050Z,96213.05
2022-12-08T10:48:40.696Z,96219.60
2022-12-08T10:51:51.213Z,96199.83
2022-12-08T10:54:39.246Z,96203.01
2022-12-08T10:57:34.011Z,96197.95
2022-12-08T11:00:34.655Z,96187.63
2022-12-08T11:03:48.460Z,96187.63
2022-12-08T11:06:37.770Z,96196.36
2022-12-08T11:09:31.301Z,96194.83
2022-12-08T11:12:19.588Z,96190.75
2022-12-08T11:15:03.185Z,96190.31
2022-12-08T11:17:39.716Z,96188.49
2022-12-08T11:20:53.698Z,96185.91
2022-12-08T11:48:38.390Z,96141.95
2022-12-08T11:51:18.999Z,96142.98
2022-12-08T11:54:06.345Z,96153.15
2022-12-08T11:56:43.166Z,96151.02
2022-12-08T11:59:34.507Z,96143.64
2022-12-08T12:02:30.781Z,96135.68
2022-12-08T12:08:54.752Z,96131.59
2022-12-08T12:12:02.153Z,96134.34
2022-12-08T12:14:51.491Z,96131.66
2022-12-08T12:17:54.835Z,96116.52
2022-12-08T12:22:03.758Z,96122.70
2022-12-08T12:24:38.946Z,96119.80
2022-12-08T12:27:24.193Z,96117.25
2022-12-08T12:30:11.137Z,96128.11
2022-12-08T12:32:45.168Z,96128.92
2022-12-08T12:35:26.845Z,96130.98
2022-12-08T12:38:05.521Z,96133.81
2022-12-08T12:40:49.068Z,96136.55
2022-12-08T12:43:31.040Z,96122.66
2022-12-08T12:46:37.366Z,96118.95
2022-12-08T12:49:52.602Z,96110.53
2022-12-08T12:52:37.635Z,96109.73
2022-12-08T12:55:58.311Z,96107.02
2022-12-08T12:58:41.073Z,96103.42
2022-12-08T13:01:43.426Z,96101.56
2022-12-08T13:04:23.226Z,96103.43
2022-12-08T13:07:13.407Z,96105.56
2022-12-08T13:10:02.057Z,96100.98
2022-12-08T13:12:36.951Z,96094.80
2022-12-08T13:15:56.013Z,96089.56
2022-12-08T13:18:38.001Z,96075.14
2022-12-08T13:22:35.292Z,96072.17
2022-12-08T13:30:02.397Z,96060.52
2022-12-08T13:33:28.921Z,96049.83
2022-12-08T13:36:24.842Z,96046.95
2022-12-08T13:39:03.409Z,96051.85
2022-12-08T13:41:51.981Z,96059.13
2022-12-08T13:45:24.167Z,96063.43
2022-12-08T13:48:42.626Z,96058.92
2022-12-08T13:56:43.444Z,96057.48
2022-12-08T13:57:36.040Z,96046.90
2022-12-08T14:00:18.164Z,96040.58
2022-12-08T14:02:51.100Z,96035.59
2022-12-08T14:05:35.264Z,96038.46
2022-12-08T14:08:59.311Z,96033.34
2022-12-08T14:11:57.988Z,96039.02
2022-12-08T14:17:36.204Z,96040.73
2022-12-08T14:20:23.179Z,96048.10
2022-12-08T14:22:55.235Z,96050.90
2022-12-08T14:25:27.277Z,96052.80
2022-12-08T14:28:08.034Z,96055.61
2022-12-08T14:30:38.640Z,96059.05
2022-12-08T14:33:14.622Z,96063.21
2022-12-08T14:35:53.752Z,96057.67
2022-12-08T14:38:24.801Z,96051.89
2022-12-08T14:41:11.660Z,96043.77
2022-12-08T14:43:40.908Z,96044.24
2022-12-08T14:46:22.615Z,96040.18
2022-12-08T14:48:55.215Z,96044.92
2022-12-08T14:51:29.175Z,96042.06
2022-12-08T14:54:05.445Z,96046.10
2022-12-08T14:56:41.787Z,96043.05
2022-12-08T14:59:34.398Z,96039.67
2022-12-08T15:02:30.151Z,96032.20
2022-12-08T15:05:05.963Z,96028.26
2022-12-08T15:07:54.386Z,96021.27
2022-12-08T15:10:27.395Z,96027.09
2022-12-08T15:13:03.067Z,96037.86
2022-12-08T15:15:44.876Z,96046.71
2022-12-08T15:18:18.687Z,96033.16
2022-12-08T15:20:51.797Z,96024.32
2022-12-08T15:23:26.465Z,96017.98
2022-12-08T15:25:56.147Z,96023.45
2022-12-08T15:28:29.953Z,96021.81
2022-12-08T15:30:59.091Z,96025.87
2022-12-08T15:33:27.486Z,96025.54
2022-12-08T15:35:55.413Z,96022.70
2022-12-08T15:38:28.771Z,96015.09
2022-12-08T15:40:59.579Z,96012.96
2022-12-08T15:43:27.739Z,96015.41
2022-12-08T15:46:00.344Z,96015.78
2022-12-08T15:48:30.653Z,96014.84
2022-12-08T15:50:59.247Z,96015.62
2022-12-08T15:53:27.042Z,96011.65
2022-12-08T15:56:26.507Z,96013.77
2022-12-08T15:58:58.974Z,96007.42
2022-12-08T16:01:27.536Z,96000.97
2022-12-08T16:09:42.705Z,96008.98
2022-12-08T16:13:26.662Z,95999.30
2022-12-08T16:18:24.254Z,95990.33
2022-12-08T16:21:31.706Z,95981.27
2022-12-08T16:23:44.689Z,95979.14
2022-12-08T16:26:44.358Z,95973.05
2022-12-08T16:29:06.546Z,95965.89
2022-12-08T16:31:34.703Z,95960.64
2022-12-08T16:34:02.880Z,95957.20
2022-12-08T16:36:30.616Z,95960.39
2022-12-08T16:38:58.606Z,95961.66
2022-12-08T16:41:39.048Z,95958.81
2022-12-08T16:44:06.982Z,95949.48
2022-12-08T16:46:35.983Z,95943.09
2022-12-08T16:49:08.049Z,95943.80
2022-12-08T16:51:35.833Z,95942.80
2022-12-08T16:54:03.627Z,95947.33
2022-12-08T16:56:33.488Z,95945.12
2022-12-08T16:59:02.487Z,95949.10
2022-12-08T17:01:30.723Z,95963.96
2022-12-08T17:06:46.961Z,95974.45
2022-12-08T17:09:14.935Z,95977.88
2022-12-08T17:11:43.866Z,95974.41
2022-12-08T17:14:13.321Z,95966.29
2022-12-08T17:16:42.466Z,95960.33
2022-12-08T17:19:13.127Z,95958.75
2022-12-08T17:21:42.204Z,95965.30
2022-12-08T17:24:10.259Z,95965.07
2022-12-08T17:26:38.168Z,95965.63
2022-12-08T17:29:06.064Z,95961.45
2022-12-08T17:31:34.181Z,95955.80
2022-12-08T17:34:03.957Z,95958.30
2022-12-08T17:36:32.423Z,95956.21
2022-12-08T17:39:01.273Z,95953.77
2022-12-08T17:41:29.515Z,95958.92
2022-12-08T17:43:57.828Z,95953.67
2022-12-08T17:46:26.014Z,95953.36
2022-12-08T17:48:54.213Z,95949.34
2022-12-08T17:51:22.116Z,95952.80
2022-12-08T17:53:50.260Z,95948.35
2022-12-08T17:56:20.795Z,95954.00
2022-12-08T17:58:54.245Z,95949.85
2022-12-08T18:01:24.502Z,95946.95
2022-12-08T18:03:52.404Z,95948.08
2022-12-08T18:06:20.357Z,95946.19
2022-12-08T18:08:48.320Z,95941.05
2022-12-08T18:11:19.248Z,95941.96
2022-12-08T18:13:48.765Z,95939.56
2022-12-08T18:16:19.861Z,95936.45
2022-12-08T18:18:48.317Z,95937.09
2022-12-08T18:21:23.047Z,95936.20
2022-12-08T18:23:51.825Z,95936.20
2022-12-08T18:26:20.686Z,95936.21
2022-12-08T18:28:49.055Z,95934.77
2022-12-08T18:31:20.302Z,95930.05
2022-12-08T18:33:49.271Z,95933.76
2022-12-08T18:36:20.922Z,95930.51
2022-12-08T18:38:49.698Z,95931.17
2022-12-08T18:41:23.448Z,95934.22
2022-12-08T18:43:52.678Z,95924.16
2022-12-08T18:46:21.490Z,95922.67
2022-12-08T18:48:50.956Z,95924.34
2022-12-08T18:51:21.950Z,95925.67
2022-12-08T18:53:50.886Z,95922.36
2022-12-08T18:56:23.323Z,95927.42
2022-12-08T18:58:51.423Z,95921.71
2022-12-08T19:01:19.645Z,95924.13
2022-12-08T19:04:11.967Z,95919.45
2022-12-08T19:06:38.035Z,95916.47
2022-12-08T19:09:06.726Z,95913.39
2022-12-08T19:11:34.649Z,95918.99
2022-12-08T19:14:02.574Z,95918.39
2022-12-08T19:16:31.049Z,95919.94
2022-12-08T19:18:59.148Z,95922.29
2022-12-08T19:21:27.187Z,95922.69
2022-12-08T19:23:58.148Z,95929.01
2022-12-08T19:26:27.977Z,95931.10
2022-12-08T19:28:56.069Z,95932.00
2022-12-08T19:31:24.034Z,95930.74
2022-12-08T19:33:52.190Z,95931.44
2022-12-08T19:36:22.286Z,95928.79
2022-12-08T19:39:10.279Z,95924.91
2022-12-08T19:41:50.559Z,95924.48
2022-12-08T19:44:40.601Z,95924.70
2022-12-08T19:47:09.186Z,95922.73
2022-12-08T19:49:38.216Z,95921.02
2022-12-08T19:52:06.516Z,95918.13
2022-12-08T19:54:34.689Z,95911.17
2022-12-08T19:57:02.788Z,95909.23
2022-12-08T19:59:30.679Z,95906.43
2022-12-08T20:01:59.089Z,95904.98
2022-12-08T20:04:27.443Z,95902.38
2022-12-08T20:06:56.715Z,95906.19
2022-12-08T20:09:25.660Z,95900.44
2022-12-08T20:11:54.888Z,95897.27
2022-12-08T20:14:23.532Z,95896.59
2022-12-08T20:16:51.617Z,95897.14
2022-12-08T20:19:19.796Z,95898.23
2022-12-08T20:21:48.743Z,95894.52
2022-12-08T20:24:17.182Z,95884.15
2022-12-08T20:26:45.037Z,95880.22
2022-12-08T20:29:16.991Z,95884.75
2022-12-08T20:31:45.961Z,95883.39
2022-12-08T20:34:16.016Z,95883.33
2022-12-08T20:36:45.188Z,95894.45
2022-12-08T20:39:15.849Z,95896.86
2022-12-08T20:41:45.928Z,95902.21
2022-12-08T20:44:13.808Z,95900.44
2022-12-08T20:46:49.233Z,95899.95
2022-12-08T20:49:17.620Z,95894.19
2022-12-08T20:51:47.303Z,95890.42
2022-12-08T20:54:16.328Z,95890.14
2022-12-08T20:56:48.297Z,95889.23
2022-12-08T20:59:18.164Z,95891.73
2022-12-08T21:01:46.388Z,95888.04
2022-12-08T21:04:15.811Z,95885.17
2022-12-08T21:06:43.999Z,95889.67
2022-12-08T21:09:12.145Z,95887.42
2022-12-08T21:11:40.228Z,95891.02
2022-12-08T21:14:08.270Z,95894.10
2022-12-08T21:16:38.773Z,95899.11
2022-12-08T21:19:06.729Z,95901.10
2022-12-08T21:21:34.614Z,95901.34
2022-12-08T21:24:05.192Z,95902.64
2022-12-08T21:26:33.202Z,95894.84
2022-12-08T21:29:01.720Z,95896.25
2022-12-08T21:31:32.115Z,95894.95
2022-12-08T21:34:01.532Z,95899.33
2022-12-08T21:36:31.056Z,95896.34
2022-12-08T21:39:02.880Z,95894.56
2022-12-08T21:41:48.720Z,95892.83
2022-12-08T21:44:18.742Z,95896.88
2022-12-08T21:46:46.953Z,95894.75
2022-12-08T21:49:15.425Z,95895.98
2022-12-08T21:51:43.493Z,95899.64
2022-12-08T21:54:18.381Z,95903.70
2022-12-08T21:56:48.386Z,95900.36
2022-12-08T21:59:18.148Z,95906.10
2022-12-08T22:01:46.809Z,95900.09
2022-12-08T22:04:18.659Z,95900.39
2022-12-08T22:06:47.485Z,95896.09
2022-12-08T22:09:16.011Z,95901.36
2022-12-08T22:11:44.460Z,95898.83
2022-12-08T22:14:14.830Z,95900.63
2022-12-08T22:16:44.185Z,95897.65
2022-12-08T22:19:12.695Z,95901.45
2022-12-08T22:21:40.783Z,95898.08
2022-12-08T22:24:09.780Z,95886.78
2022-12-08T22:26:37.844Z,95883.26
2022-12-08T22:29:05.635Z,95880.48
2022-12-08T22:31:33.563Z,95880.24
2022-12-08T22:34:01.615Z,95882.48
2022-12-08T22:36:29.845Z,95884.52
2022-12-08T22:38:58.043Z,95888.02
2022-12-08T22:41:26.051Z,95889.08
2022-12-08T22:43:54.085Z,95884.36
2022-12-08T22:46:25.186Z,95884.16
2022-12-08T22:48:54.362Z,95886.85
2022-12-08T22:51:22.130Z,95882.67
2022-12-08T22:53:50.904Z,95877.98
2022-12-08T22:56:19.696Z,95887.43
2022-12-08T22:58:47.834Z,95878.39
2022-12-08T23:01:26.262Z,95873.01
2022-12-08T23:03:54.337Z,95876.70
2022-12-08T23:06:22.773Z,95873.55
2022-12-08T23:08:51.613Z,95873.71
2022-12-08T23:11:21.866Z,95871.56
2022-12-08T23:13:49.970Z,95873.64
2022-12-08T23:16:18.197Z,95873.43
2022-12-08T23:18:46.956Z,95860.75
2022-12-08T23:21:17.731Z,95870.38
2022-12-08T23:23:45.824Z,95867.35
2022-12-08T23:26:28.122Z,95866.17
2022-12-08T23:28:57.862Z,95874.05
2022-12-08T23:31:27.260Z,95867.23
2022-12-08T23:33:56.066Z,95868.82
2022-12-08T23:36:26.518Z,95872.61
2022-12-08T23:38:54.828Z,95872.09
2022-12-08T23:41:22.639Z,95867.40
2022-12-08T23:43:54.266Z,95869.13
2022-12-08T23:46:25.508Z,95866.31
2022-12-08T23:48:53.426Z,95866.06
2022-12-08T23:51:22.049Z,95866.40
2022-12-08T23:53:49.864Z,95875.18
2022-12-08T23:56:18.444Z,95876.84
2022-12-08T23:58:46.598Z,95877.72
